Time,TemperatureF,DewpointF,PressureIn,WindDirection,WindDirectionDegrees,WindSpeedMPH,WindSpeedGustMPH,Humidity,HourlyPrecipIn,Conditions,Clouds,dailyrainin,SoftwareType,DateUTC
2013-01-19 00:15:00,58.4,57.0,30.21,NNE,27,0.0,5.0,95,0.00,,,0.00,weatherlink.com 1.10,2013-01-19 05:15:00,
2013-01-19 00:30:00,58.4,57.0,30.20,North,349,1.0,5.0,95,0.00,,,0.00,weatherlink.com 1.10,2013-01-19 05:30:00,
2013-01-19 01:00:00,58.3,57.0,30.20,North,354,0.0,7.0,95,0.00,,,0.00,weatherlink.com 1.10,2013-01-19 06:00:00,
2013-01-19 01:14:00,58.4,57.0,30.19,ENE,76,1.0,5.0,95,0.00,,,0.00,weatherlink.com 1.10,2013-01-19 06:14:00,
2013-01-19 01:30:00,58.4,57.0,30.19,ENE,57,2.0,3.0,96,0.00,,,0.00,weatherlink.com 1.10,2013-01-19 06:30:00,
2013-01-19 01:45:00,58.6,58.0,30.18,NNE,18,1.0,4.0,96,0.00,,,0.00,weatherlink.com 1.10,2013-01-19 06:45:00,
2013-01-19 02:00:00,58.8,58.0,30.18,NE,40,2.0,4.0,96,0.00,,,0.00,weatherlink.com 1.10,2013-01-19 07:00:00,
2013-01-19 02:15:00,59.3,58.0,30.18,ENE,57,7.0,8.0,96,0.00,,,0.00,weatherlink.com 1.10,2013-01-19 07:15:00,
2013-01-19 02:30:00,59.8,59.0,30.18,ENE,67,2.0,8.0,96,0.00,,,0.00,weatherlink.com 1.10,2013-01-19 07:30:00,
2013-01-19 02:45:00,60.1,59.0,30.18,NNE,24,3.0,8.0,96,0.00,,,0.00,weatherlink.com 1.10,2013-01-19 07:45:00,
2013-01-19 03:00:00,60.3,59.0,30.18,ENE,72,2.0,10.0,96,0.00,,,0.00,weatherlink.com 1.10,2013-01-19 08:00:00,
2013-01-19 03:15:00,60.4,59.0,30.18,NNW,338,5.0,8.0,96,0.00,,,0.00,weatherlink.com 1.10,2013-01-19 08:15:00,
2013-01-19 03:30:00,60.6,59.0,30.17,NNE,24,3.0,11.0,95,0.00,,,0.00,weatherlink.com 1.10,2013-01-19 08:30:00,
2013-01-19 03:45:00,60.5,59.0,30.17,ENE,76,3.0,10.0,95,0.00,,,0.00,weatherlink.com 1.10,2013-01-19 08:45:00,
2013-01-19 04:00:00,60.4,59.0,30.17,NNW,343,2.0,8.0,95,0.00,,,0.00,weatherlink.com 1.10,2013-01-19 09:00:00,
2013-01-19 04:15:00,59.8,58.0,30.17,WNW,295,5.0,7.0,95,0.00,,,0.00,weatherlink.com 1.10,2013-01-19 09:15:00,
2013-01-19 04:30:00,59.2,58.0,30.17,NE,37,3.0,7.0,95,0.00,,,0.00,weatherlink.com 1.10,2013-01-19 09:30:00,
2013-01-19 04:45:00,59.0,58.0,30.17,NNE,23,5.0,8.0,96,0.00,,,0.00,weatherlink.com 1.10,2013-01-19 09:45:00,
2013-01-19 05:00:00,58.1,57.0,30.17,NNE,32,4.0,9.0,96,0.00,,,0.00,weatherlink.com 1.10,2013-01-19 10:00:00,
2013-01-19 05:15:00,-999.0,-99.9,30.18,North,-999,-999.0,-999.0,-999,0.00,,,0.00,weatherlink.com 1.10,2013-01-19 10:15:00,
2013-01-19 05:31:00,-999.0,-99.9,30.18,North,-999,-999.0,-999.0,-999,0.00,,,0.00,weatherlink.com 1.10,2013-01-19 10:31:00,
2013-01-19 05:46:00,-999.0,-99.9,30.19,North,-999,-999.0,-999.0,-999,0.00,,,0.00,weatherlink.com 1.10,2013-01-19 10:46:00,
2013-01-19 06:00:00,-999.0,-99.9,30.18,North,-999,-999.0,-999.0,-999,0.00,,,0.00,weatherlink.com 1.10,2013-01-19 11:00:00,
2013-01-19 08:16:00,-999.0,-99.9,30.21,North,-999,-999.0,-999.0,-999,0.00,,,0.00,weatherlink.com 1.10,2013-01-19 13:16:00,
2013-01-19 08:31:00,60.2,59.0,30.22,NE,44,4.0,7.0,96,0.00,,,0.00,weatherlink.com 1.10,2013-01-19 13:31:00,
2013-01-19 08:47:00,60.5,59.0,30.23,NNE,22,6.0,7.0,95,0.00,,,0.00,weatherlink.com 1.10,2013-01-19 13:47:00,
2013-01-19 09:01:00,60.7,59.0,30.23,NE,39,7.0,9.0,95,0.00,,,0.00,weatherlink.com 1.10,2013-01-19 14:01:00,
2013-01-19 09:16:00,61.1,59.0,30.23,ENE,60,1.0,8.0,94,0.00,,,0.00,weatherlink.com 1.10,2013-01-19 14:16:00,
2013-01-19 09:31:00,61.5,60.0,30.23,ENE,57,2.0,4.0,94,0.00,,,0.00,weatherlink.com 1.10,2013-01-19 14:31:00,
2013-01-19 09:46:00,63.1,61.0,30.24,ENE,59,6.0,7.0,92,0.00,,,0.00,weatherlink.com 1.10,2013-01-19 14:46:00,
2013-01-19 10:02:00,64.2,61.0,30.24,ENE,78,2.0,7.0,90,0.00,,,0.00,weatherlink.com 1.10,2013-01-19 15:02:00,
2013-01-19 10:17:00,65.2,61.0,30.24,ENE,70,3.0,7.0,87,0.00,,,0.00,weatherlink.com 1.10,2013-01-19 15:17:00,
2013-01-19 10:32:00,66.6,62.0,30.24,NE,46,5.0,6.0,85,0.00,,,0.00,weatherlink.com 1.10,2013-01-19 15:32:00,
2013-01-19 10:47:00,67.5,62.0,30.23,ENE,78,4.0,8.0,83,0.00,,,0.00,weatherlink.com 1.10,2013-01-19 15:47:00,
2013-01-19 11:02:00,67.5,62.0,30.23,NE,46,3.0,8.0,83,0.00,,,0.00,weatherlink.com 1.10,2013-01-19 16:02:00,
2013-01-19 11:17:00,68.5,63.0,30.23,East,83,3.0,6.0,82,0.00,,,0.00,weatherlink.com 1.10,2013-01-19 16:17:00,
2013-01-19 11:32:00,69.3,63.0,30.21,ENE,58,2.0,7.0,81,0.00,,,0.00,weatherlink.com 1.10,2013-01-19 16:32:00,
2013-01-19 11:47:00,69.5,63.0,30.21,ENE,60,2.0,7.0,80,0.00,,,0.00,weatherlink.com 1.10,2013-01-19 16:47:00,
2013-01-19 12:02:00,70.4,64.0,30.20,ENE,75,3.0,5.0,80,0.00,,,0.00,weatherlink.com 1.10,2013-01-19 17:02:00,
2013-01-19 12:17:00,70.7,64.0,30.19,ENE,77,3.0,5.0,80,0.00,,,0.00,weatherlink.com 1.10,2013-01-19 17:17:00,
2013-01-19 12:32:00,71.1,64.0,30.18,NNE,18,3.0,7.0,79,0.00,,,0.00,weatherlink.com 1.10,2013-01-19 17:32:00,
2013-01-19 13:17:00,73.0,65.0,30.15,East,98,4.0,7.0,76,0.00,,,0.00,weatherlink.com 1.10,2013-01-19 18:17:00,
2013-01-19 13:32:00,73.4,65.0,30.14,East,82,3.0,7.0,74,0.00,,,0.00,weatherlink.com 1.10,2013-01-19 18:32:00,
2013-01-19 13:47:00,72.8,65.0,30.14,ENE,76,3.0,7.0,76,0.00,,,0.00,weatherlink.com 1.10,2013-01-19 18:47:00,
2013-01-19 14:02:00,73.5,65.0,30.12,ENE,72,2.0,8.0,75,0.00,,,0.00,weatherlink.com 1.10,2013-01-19 19:02:00,
2013-01-19 14:17:00,73.8,64.0,30.12,ENE,66,6.0,12.0,72,0.00,,,0.00,weatherlink.com 1.10,2013-01-19 19:17:00,
2013-01-19 14:32:00,73.4,64.0,30.11,NE,51,3.0,11.0,73,0.00,,,0.00,weatherlink.com 1.10,2013-01-19 19:32:00,
2013-01-19 14:47:00,73.2,64.0,30.11,East,80,8.0,8.0,74,0.00,,,0.00,weatherlink.com 1.10,2013-01-19 19:47:00,
2013-01-19 15:02:00,74.5,65.0,30.10,ENE,63,4.0,12.0,71,0.00,,,0.00,weatherlink.com 1.10,2013-01-19 20:02:00,
2013-01-19 15:17:00,74.3,64.0,30.10,ENE,60,7.0,10.0,71,0.00,,,0.00,weatherlink.com 1.10,2013-01-19 20:17:00,
2013-01-19 15:32:00,73.9,64.0,30.10,ENE,73,5.0,10.0,72,0.00,,,0.00,weatherlink.com 1.10,2013-01-19 20:32:00,
2013-01-19 15:47:00,73.7,64.0,30.10,ENE,76,7.0,10.0,72,0.00,,,0.00,weatherlink.com 1.10,2013-01-19 20:47:00,
2013-01-19 16:02:00,73.5,64.0,30.10,East,82,4.0,9.0,72,0.00,,,0.00,weatherlink.com 1.10,2013-01-19 21:02:00,
2013-01-19 16:17:00,73.7,64.0,30.10,ENE,69,3.0,8.0,72,0.00,,,0.00,weatherlink.com 1.10,2013-01-19 21:17:00,
2013-01-19 16:32:00,74.0,64.0,30.10,ENE,67,4.0,9.0,70,0.00,,,0.00,weatherlink.com 1.10,2013-01-19 21:32:00,
2013-01-19 16:47:00,73.7,65.0,30.10,East,85,3.0,9.0,73,0.00,,,0.00,weatherlink.com 1.10,2013-01-19 21:47:00,
2013-01-19 17:02:00,73.1,64.0,30.10,ENE,68,4.0,7.0,74,0.00,,,0.00,weatherlink.com 1.10,2013-01-19 22:02:00,
2013-01-19 17:17:00,73.0,65.0,30.10,ENE,60,3.0,8.0,75,0.00,,,0.00,weatherlink.com 1.10,2013-01-19 22:17:00,
2013-01-19 17:33:00,72.4,65.0,30.11,ENE,70,5.0,8.0,77,0.00,,,0.00,weatherlink.com 1.10,2013-01-19 22:33:00,
2013-01-19 17:48:00,71.9,65.0,30.11,ENE,64,3.0,5.0,78,0.00,,,0.00,weatherlink.com 1.10,2013-01-19 22:48:00,
2013-01-19 18:03:00,71.5,65.0,30.12,ENE,72,2.0,7.0,79,0.00,,,0.00,weatherlink.com 1.10,2013-01-19 23:03:00,
2013-01-19 18:18:00,71.1,64.0,30.12,East,89,7.0,8.0,77,0.00,,,0.00,weatherlink.com 1.10,2013-01-19 23:18:00,
2013-01-19 18:33:00,70.7,64.0,30.12,ESE,108,4.0,8.0,79,0.00,,,0.00,weatherlink.com 1.10,2013-01-19 23:33:00,
2013-01-19 18:48:00,70.3,64.0,30.13,NE,53,3.0,8.0,80,0.00,,,0.00,weatherlink.com 1.10,2013-01-19 23:48:00,
2013-01-19 19:03:00,69.9,64.0,30.12,East,85,1.0,5.0,82,0.00,,,0.00,weatherlink.com 1.10,2013-01-20 00:03:00,
2013-01-19 19:18:00,69.5,64.0,30.14,NNE,27,2.0,5.0,83,0.00,,,0.00,weatherlink.com 1.10,2013-01-20 00:18:00,
2013-01-19 19:33:00,69.0,64.0,30.14,ENE,74,2.0,7.0,85,0.00,,,0.00,weatherlink.com 1.10,2013-01-20 00:33:00,
2013-01-19 19:48:00,68.5,65.0,30.14,East,80,2.0,5.0,87,0.00,,,0.00,weatherlink.com 1.10,2013-01-20 00:48:00,
2013-01-19 20:18:00,67.9,65.0,30.15,East,88,5.0,5.0,89,0.00,,,0.00,weatherlink.com 1.10,2013-01-20 01:18:00,
2013-01-19 20:33:00,67.8,65.0,30.15,East,82,3.0,6.0,89,0.00,,,0.00,weatherlink.com 1.10,2013-01-20 01:33:00,
2013-01-19 20:48:00,67.5,65.0,30.15,East,96,3.0,5.0,90,0.00,,,0.00,weatherlink.com 1.10,2013-01-20 01:48:00,
2013-01-19 21:33:00,66.8,65.0,30.15,ENE,76,1.0,5.0,92,0.00,,,0.00,weatherlink.com 1.10,2013-01-20 02:33:00,
2013-01-19 21:48:00,66.6,64.0,30.15,East,84,2.0,5.0,92,0.00,,,0.00,weatherlink.com 1.10,2013-01-20 02:48:00,
2013-01-19 22:03:00,66.5,64.0,30.15,ENE,67,2.0,4.0,92,0.00,,,0.00,weatherlink.com 1.10,2013-01-20 03:03:00,
2013-01-19 22:18:00,66.4,64.0,30.14,ENE,65,2.0,4.0,93,0.00,,,0.00,weatherlink.com 1.10,2013-01-20 03:18:00,
2013-01-19 22:48:00,66.3,64.0,30.14,ENE,57,0.0,5.0,93,0.00,,,0.00,weatherlink.com 1.10,2013-01-20 03:48:00,
2013-01-19 23:03:00,66.2,64.0,30.13,ENE,63,3.0,4.0,93,0.00,,,0.00,weatherlink.com 1.10,2013-01-20 04:03:00,
2013-01-19 23:18:00,66.1,64.0,30.13,ENE,72,1.0,6.0,93,0.00,,,0.00,weatherlink.com 1.10,2013-01-20 04:18:00,
2013-01-19 23:33:00,65.8,64.0,30.12,ENE,67,5.0,6.0,93,0.00,,,0.00,weatherlink.com 1.10,2013-01-20 04:33:00,
2013-01-19 23:48:00,65.6,64.0,30.12,ENE,65,2.0,4.0,93,0.00,,,0.00,weatherlink.com 1.10,2013-01-20 04:48:00,